sensor_id;sensor_type;location;lat;lon;timestamp;P1;durP1;ratioP1;P2;durP2;ratioP2
57029;SDS011;42920;45.306;20.448;2023-06-26T00:01:31;12.52;;;5.78;;
57029;SDS011;42920;45.306;20.448;2023-06-26T00:03:57;11.32;;;5.25;;
57029;SDS011;42920;45.306;20.448;2023-06-26T00:06:26;10.23;;;6.38;;
57029;SDS011;42920;45.306;20.448;2023-06-26T00:08:53;9.10;;;6.05;;
57029;SDS011;42920;45.306;20.448;2023-06-26T00:11:19;7.50;;;5.28;;
57029;SDS011;42920;45.306;20.448;2023-06-26T00:13:45;9.93;;;6.35;;
57029;SDS011;42920;45.306;20.448;2023-06-26T00:16:11;11.80;;;6.13;;
57029;SDS011;42920;45.306;20.448;2023-06-26T00:18:36;7.78;;;5.10;;
57029;SDS011;42920;45.306;20.448;2023-06-26T00:21:02;11.63;;;6.30;;
57029;SDS011;42920;45.306;20.448;2023-06-26T00:23:28;8.40;;;5.95;;
57029;SDS011;42920;45.306;20.448;2023-06-26T00:25:55;9.75;;;6.65;;
57029;SDS011;42920;45.306;20.448;2023-06-26T00:28:21;10.88;;;6.35;;
57029;SDS011;42920;45.306;20.448;2023-06-26T00:30:47;9.50;;;6.60;;
57029;SDS011;42920;45.306;20.448;2023-06-26T00:33:12;10.00;;;6.70;;
57029;SDS011;42920;45.306;20.448;2023-06-26T00:35:38;11.30;;;6.95;;
57029;SDS011;42920;45.306;20.448;2023-06-26T00:38:04;16.45;;;8.20;;
57029;SDS011;42920;45.306;20.448;2023-06-26T00:40:29;13.13;;;7.38;;
57029;SDS011;42920;45.306;20.448;2023-06-26T00:42:55;15.95;;;7.72;;
57029;SDS011;42920;45.306;20.448;2023-06-26T00:45:21;15.65;;;8.68;;
57029;SDS011;42920;45.306;20.448;2023-06-26T00:47:47;12.48;;;7.20;;
57029;SDS011;42920;45.306;20.448;2023-06-26T00:50:13;17.65;;;7.68;;
57029;SDS011;42920;45.306;20.448;2023-06-26T00:52:41;14.20;;;7.53;;
57029;SDS011;42920;45.306;20.448;2023-06-26T00:55:07;12.25;;;6.55;;
57029;SDS011;42920;45.306;20.448;2023-06-26T00:57:33;13.30;;;6.35;;
57029;SDS011;42920;45.306;20.448;2023-06-26T01:00:00;12.40;;;6.78;;
57029;SDS011;42920;45.306;20.448;2023-06-26T01:02:26;12.70;;;6.95;;
57029;SDS011;42920;45.306;20.448;2023-06-26T01:04:58;12.40;;;7.32;;
57029;SDS011;42920;45.306;20.448;2023-06-26T01:07:28;9.35;;;6.90;;
57029;SDS011;42920;45.306;20.448;2023-06-26T01:09:54;15.18;;;6.65;;
57029;SDS011;42920;45.306;20.448;2023-06-26T01:12:20;10.38;;;6.65;;
57029;SDS011;42920;45.306;20.448;2023-06-26T01:14:47;15.82;;;5.88;;
57029;SDS011;42920;45.306;20.448;2023-06-26T01:17:12;13.73;;;6.93;;
57029;SDS011;42920;45.306;20.448;2023-06-26T01:19:40;9.30;;;5.85;;
57029;SDS011;42920;45.306;20.448;2023-06-26T01:22:23;12.35;;;5.93;;
57029;SDS011;42920;45.306;20.448;2023-06-26T01:27:36;11.75;;;6.38;;
57029;SDS011;42920;45.306;20.448;2023-06-26T01:30:03;9.05;;;5.80;;
57029;SDS011;42920;45.306;20.448;2023-06-26T01:32:30;14.63;;;5.90;;
57029;SDS011;42920;45.306;20.448;2023-06-26T01:34:58;10.75;;;6.85;;
57029;SDS011;42920;45.306;20.448;2023-06-26T01:37:24;8.75;;;6.03;;
57029;SDS011;42920;45.306;20.448;2023-06-26T01:39:50;11.73;;;6.35;;
57029;SDS011;42920;45.306;20.448;2023-06-26T01:42:16;10.55;;;6.85;;
57029;SDS011;42920;45.306;20.448;2023-06-26T01:44:44;11.27;;;6.85;;
57029;SDS011;42920;45.306;20.448;2023-06-26T01:47:11;14.77;;;7.15;;
57029;SDS011;42920;45.306;20.448;2023-06-26T01:55:17;15.32;;;7.90;;
57029;SDS011;42920;45.306;20.448;2023-06-26T01:58:02;12.23;;;8.13;;
57029;SDS011;42920;45.306;20.448;2023-06-26T02:00:28;20.65;;;8.65;;
57029;SDS011;42920;45.306;20.448;2023-06-26T02:02:54;18.70;;;7.72;;
57029;SDS011;42920;45.306;20.448;2023-06-26T02:05:20;12.95;;;8.23;;
57029;SDS011;42920;45.306;20.448;2023-06-26T02:07:46;10.60;;;7.93;;
57029;SDS011;42920;45.306;20.448;2023-06-26T02:10:12;10.15;;;8.02;;
57029;SDS011;42920;45.306;20.448;2023-06-26T02:12:39;13.43;;;9.32;;
57029;SDS011;42920;45.306;20.448;2023-06-26T02:15:05;14.93;;;8.65;;
57029;SDS011;42920;45.306;20.448;2023-06-26T02:17:31;16.90;;;8.48;;
57029;SDS011;42920;45.306;20.448;2023-06-26T02:19:56;16.15;;;8.45;;
57029;SDS011;42920;45.306;20.448;2023-06-26T02:22:22;15.02;;;8.43;;
57029;SDS011;42920;45.306;20.448;2023-06-26T02:24:48;18.23;;;9.93;;
57029;SDS011;42920;45.306;20.448;2023-06-26T02:27:14;18.90;;;10.30;;
57029;SDS011;42920;45.306;20.448;2023-06-26T02:29:40;19.02;;;10.48;;
57029;SDS011;42920;45.306;20.448;2023-06-26T02:32:06;22.75;;;10.00;;
57029;SDS011;42920;45.306;20.448;2023-06-26T02:34:32;17.05;;;11.10;;
57029;SDS011;42920;45.306;20.448;2023-06-26T02:36:58;18.23;;;10.18;;
57029;SDS011;42920;45.306;20.448;2023-06-26T02:39:25;18.17;;;11.48;;
57029;SDS011;42920;45.306;20.448;2023-06-26T02:41:51;14.15;;;10.30;;
57029;SDS011;42920;45.306;20.448;2023-06-26T02:44:17;23.70;;;10.95;;
57029;SDS011;42920;45.306;20.448;2023-06-26T02:46:43;18.75;;;10.25;;
57029;SDS011;42920;45.306;20.448;2023-06-26T02:49:08;17.58;;;10.38;;
57029;SDS011;42920;45.306;20.448;2023-06-26T02:51:34;13.30;;;9.73;;
57029;SDS011;42920;45.306;20.448;2023-06-26T02:54:00;16.05;;;10.57;;
57029;SDS011;42920;45.306;20.448;2023-06-26T02:56:26;16.48;;;11.80;;
57029;SDS011;42920;45.306;20.448;2023-06-26T02:58:54;15.10;;;10.55;;
57029;SDS011;42920;45.306;20.448;2023-06-26T03:01:20;14.88;;;9.75;;
57029;SDS011;42920;45.306;20.448;2023-06-26T03:03:46;21.23;;;11.50;;
57029;SDS011;42920;45.306;20.448;2023-06-26T03:06:12;14.82;;;9.82;;
57029;SDS011;42920;45.306;20.448;2023-06-26T03:08:38;15.30;;;11.43;;
57029;SDS011;42920;45.306;20.448;2023-06-26T03:11:05;17.70;;;10.90;;
57029;SDS011;42920;45.306;20.448;2023-06-26T03:13:32;16.83;;;10.82;;
57029;SDS011;42920;45.306;20.448;2023-06-26T03:15:59;20.17;;;11.93;;
57029;SDS011;42920;45.306;20.448;2023-06-26T03:18:25;18.38;;;11.73;;
57029;SDS011;42920;45.306;20.448;2023-06-26T03:20:51;15.40;;;11.70;;
57029;SDS011;42920;45.306;20.448;2023-06-26T03:23:19;15.30;;;11.77;;
57029;SDS011;42920;45.306;20.448;2023-06-26T03:25:45;16.73;;;10.80;;
57029;SDS011;42920;45.306;20.448;2023-06-26T03:28:11;25.88;;;11.07;;
57029;SDS011;42920;45.306;20.448;2023-06-26T03:30:37;16.58;;;10.27;;
57029;SDS011;42920;45.306;20.448;2023-06-26T03:33:02;18.00;;;10.75;;
57029;SDS011;42920;45.306;20.448;2023-06-26T03:35:28;16.77;;;10.30;;
57029;SDS011;42920;45.306;20.448;2023-06-26T03:37:54;16.13;;;10.63;;
57029;SDS011;42920;45.306;20.448;2023-06-26T03:40:19;13.23;;;10.65;;
57029;SDS011;42920;45.306;20.448;2023-06-26T03:42:45;15.38;;;10.13;;
57029;SDS011;42920;45.306;20.448;2023-06-26T03:45:11;15.95;;;10.18;;
57029;SDS011;42920;45.306;20.448;2023-06-26T03:47:37;15.10;;;10.63;;
57029;SDS011;42920;45.306;20.448;2023-06-26T03:50:02;14.20;;;10.57;;
57029;SDS011;42920;45.306;20.448;2023-06-26T03:52:29;18.30;;;11.05;;
57029;SDS011;42920;45.306;20.448;2023-06-26T03:54:56;22.60;;;11.32;;
57029;SDS011;42920;45.306;20.448;2023-06-26T03:57:22;19.60;;;10.65;;
57029;SDS011;42920;45.306;20.448;2023-06-26T03:59:48;16.08;;;12.00;;
57029;SDS011;42920;45.306;20.448;2023-06-26T04:02:14;21.42;;;11.13;;
57029;SDS011;42920;45.306;20.448;2023-06-26T04:04:40;15.68;;;11.32;;
57029;SDS011;42920;45.306;20.448;2023-06-26T04:07:05;15.43;;;10.40;;
57029;SDS011;42920;45.306;20.448;2023-06-26T04:09:31;15.48;;;11.32;;
57029;SDS011;42920;45.306;20.448;2023-06-26T04:11:57;15.10;;;11.10;;
57029;SDS011;42920;45.306;20.448;2023-06-26T04:14:22;16.88;;;10.63;;
57029;SDS011;42920;45.306;20.448;2023-06-26T04:16:48;16.23;;;11.02;;
57029;SDS011;42920;45.306;20.448;2023-06-26T04:19:14;16.95;;;11.85;;
57029;SDS011;42920;45.306;20.448;2023-06-26T04:21:40;17.50;;;11.52;;
57029;SDS011;42920;45.306;20.448;2023-06-26T04:24:06;16.75;;;11.73;;
57029;SDS011;42920;45.306;20.448;2023-06-26T04:26:31;14.15;;;10.75;;
57029;SDS011;42920;45.306;20.448;2023-06-26T04:28:57;20.08;;;11.10;;
57029;SDS011;42920;45.306;20.448;2023-06-26T04:31:23;16.38;;;11.23;;
57029;SDS011;42920;45.306;20.448;2023-06-26T04:33:48;19.88;;;11.25;;
57029;SDS011;42920;45.306;20.448;2023-06-26T04:36:16;16.08;;;12.00;;
57029;SDS011;42920;45.306;20.448;2023-06-26T04:38:42;18.48;;;11.43;;
57029;SDS011;42920;45.306;20.448;2023-06-26T04:41:08;16.85;;;12.25;;
57029;SDS011;42920;45.306;20.448;2023-06-26T04:43:34;19.70;;;11.77;;
57029;SDS011;42920;45.306;20.448;2023-06-26T04:46:01;19.08;;;12.35;;
57029;SDS011;42920;45.306;20.448;2023-06-26T04:48:27;17.98;;;12.20;;
57029;SDS011;42920;45.306;20.448;2023-06-26T04:50:54;20.05;;;12.45;;
57029;SDS011;42920;45.306;20.448;2023-06-26T04:53:21;17.30;;;12.55;;
57029;SDS011;42920;45.306;20.448;2023-06-26T04:55:48;23.42;;;13.38;;
57029;SDS011;42920;45.306;20.448;2023-06-26T04:58:14;20.30;;;12.95;;
57029;SDS011;42920;45.306;20.448;2023-06-26T05:00:41;19.33;;;12.88;;
57029;SDS011;42920;45.306;20.448;2023-06-26T05:03:07;17.38;;;13.18;;
57029;SDS011;42920;45.306;20.448;2023-06-26T05:05:34;17.42;;;13.20;;
57029;SDS011;42920;45.306;20.448;2023-06-26T05:08:12;18.73;;;11.77;;
57029;SDS011;42920;45.306;20.448;2023-06-26T05:10:42;14.20;;;11.90;;
57029;SDS011;42920;45.306;20.448;2023-06-26T05:13:08;19.65;;;13.73;;
57029;SDS011;42920;45.306;20.448;2023-06-26T05:15:33;14.27;;;11.82;;
57029;SDS011;42920;45.306;20.448;2023-06-26T05:17:59;20.77;;;13.05;;
57029;SDS011;42920;45.306;20.448;2023-06-26T05:20:25;18.10;;;12.20;;
57029;SDS011;42920;45.306;20.448;2023-06-26T05:22:50;17.92;;;12.52;;
57029;SDS011;42920;45.306;20.448;2023-06-26T05:25:18;14.88;;;12.00;;
57029;SDS011;42920;45.306;20.448;2023-06-26T05:27:46;18.30;;;12.43;;
57029;SDS011;42920;45.306;20.448;2023-06-26T05:30:13;17.58;;;12.68;;
57029;SDS011;42920;45.306;20.448;2023-06-26T05:32:40;20.05;;;12.52;;
57029;SDS011;42920;45.306;20.448;2023-06-26T05:35:06;17.70;;;11.90;;
57029;SDS011;42920;45.306;20.448;2023-06-26T05:37:33;16.05;;;12.75;;
57029;SDS011;42920;45.306;20.448;2023-06-26T05:39:59;16.45;;;12.45;;
57029;SDS011;42920;45.306;20.448;2023-06-26T05:42:26;25.83;;;14.20;;
57029;SDS011;42920;45.306;20.448;2023-06-26T05:44:53;16.40;;;12.68;;
57029;SDS011;42920;45.306;20.448;2023-06-26T05:47:19;14.75;;;12.30;;
57029;SDS011;42920;45.306;20.448;2023-06-26T05:49:44;17.02;;;12.68;;
57029;SDS011;42920;45.306;20.448;2023-06-26T05:52:10;20.17;;;12.70;;
57029;SDS011;42920;45.306;20.448;2023-06-26T05:54:36;20.00;;;12.57;;
57029;SDS011;42920;45.306;20.448;2023-06-26T05:57:02;16.60;;;13.13;;
57029;SDS011;42920;45.306;20.448;2023-06-26T05:59:31;20.70;;;13.02;;
57029;SDS011;42920;45.306;20.448;2023-06-26T06:01:57;17.83;;;12.07;;
57029;SDS011;42920;45.306;20.448;2023-06-26T06:04:23;19.20;;;11.73;;
57029;SDS011;42920;45.306;20.448;2023-06-26T06:06:49;13.77;;;11.30;;
57029;SDS011;42920;45.306;20.448;2023-06-26T06:09:15;15.88;;;12.23;;
57029;SDS011;42920;45.306;20.448;2023-06-26T06:11:41;14.93;;;10.52;;
57029;SDS011;42920;45.306;20.448;2023-06-26T06:14:06;16.40;;;10.95;;
57029;SDS011;42920;45.306;20.448;2023-06-26T06:16:32;15.38;;;11.88;;
57029;SDS011;42920;45.306;20.448;2023-06-26T06:18:58;14.63;;;11.07;;
57029;SDS011;42920;45.306;20.448;2023-06-26T06:21:23;14.15;;;9.98;;
57029;SDS011;42920;45.306;20.448;2023-06-26T06:23:49;15.77;;;10.18;;
57029;SDS011;42920;45.306;20.448;2023-06-26T06:26:15;13.73;;;10.20;;
57029;SDS011;42920;45.306;20.448;2023-06-26T06:28:40;16.50;;;9.68;;
57029;SDS011;42920;45.306;20.448;2023-06-26T06:31:06;12.90;;;9.93;;
57029;SDS011;42920;45.306;20.448;2023-06-26T06:33:32;12.60;;;9.70;;
57029;SDS011;42920;45.306;20.448;2023-06-26T06:35:57;14.15;;;9.65;;
57029;SDS011;42920;45.306;20.448;2023-06-26T06:38:23;14.18;;;9.60;;
57029;SDS011;42920;45.306;20.448;2023-06-26T06:40:49;13.57;;;9.23;;
57029;SDS011;42920;45.306;20.448;2023-06-26T06:43:15;13.20;;;8.85;;
57029;SDS011;42920;45.306;20.448;2023-06-26T06:45:40;10.73;;;9.00;;
57029;SDS011;42920;45.306;20.448;2023-06-26T06:48:06;10.57;;;7.60;;
57029;SDS011;42920;45.306;20.448;2023-06-26T06:50:32;10.73;;;8.10;;
57029;SDS011;42920;45.306;20.448;2023-06-26T06:52:58;13.85;;;8.48;;
57029;SDS011;42920;45.306;20.448;2023-06-26T06:55:23;13.32;;;8.00;;
57029;SDS011;42920;45.306;20.448;2023-06-26T06:57:50;10.85;;;8.07;;
57029;SDS011;42920;45.306;20.448;2023-06-26T07:00:16;10.48;;;7.40;;
57029;SDS011;42920;45.306;20.448;2023-06-26T07:02:43;11.95;;;6.50;;
57029;SDS011;42920;45.306;20.448;2023-06-26T07:05:09;16.23;;;8.55;;
57029;SDS011;42920;45.306;20.448;2023-06-26T07:07:35;10.75;;;7.53;;
57029;SDS011;42920;45.306;20.448;2023-06-26T07:10:13;10.57;;;8.32;;
57029;SDS011;42920;45.306;20.448;2023-06-26T07:12:39;12.50;;;7.53;;
57029;SDS011;42920;45.306;20.448;2023-06-26T07:15:05;22.35;;;8.98;;
57029;SDS011;42920;45.306;20.448;2023-06-26T07:17:31;12.15;;;8.10;;
57029;SDS011;42920;45.306;20.448;2023-06-26T07:19:58;10.00;;;7.35;;
57029;SDS011;42920;45.306;20.448;2023-06-26T07:22:25;10.70;;;7.22;;
57029;SDS011;42920;45.306;20.448;2023-06-26T07:24:51;10.98;;;8.07;;
57029;SDS011;42920;45.306;20.448;2023-06-26T07:27:17;17.88;;;7.50;;
57029;SDS011;42920;45.306;20.448;2023-06-26T07:29:44;14.65;;;7.80;;
57029;SDS011;42920;45.306;20.448;2023-06-26T07:32:10;13.98;;;7.72;;
57029;SDS011;42920;45.306;20.448;2023-06-26T07:34:36;11.63;;;7.35;;
57029;SDS011;42920;45.306;20.448;2023-06-26T07:37:02;8.52;;;7.28;;
57029;SDS011;42920;45.306;20.448;2023-06-26T07:39:28;16.95;;;8.38;;
57029;SDS011;42920;45.306;20.448;2023-06-26T07:41:53;14.07;;;7.50;;
57029;SDS011;42920;45.306;20.448;2023-06-26T07:44:19;39.85;;;9.38;;
57029;SDS011;42920;45.306;20.448;2023-06-26T07:46:45;15.75;;;7.53;;
57029;SDS011;42920;45.306;20.448;2023-06-26T07:49:11;11.32;;;7.00;;
57029;SDS011;42920;45.306;20.448;2023-06-26T07:51:37;10.13;;;7.20;;
57029;SDS011;42920;45.306;20.448;2023-06-26T07:54:03;10.70;;;7.78;;
57029;SDS011;42920;45.306;20.448;2023-06-26T07:56:28;8.48;;;6.55;;
57029;SDS011;42920;45.306;20.448;2023-06-26T07:58:54;12.25;;;7.30;;
57029;SDS011;42920;45.306;20.448;2023-06-26T08:01:22;13.30;;;7.43;;
57029;SDS011;42920;45.306;20.448;2023-06-26T08:03:48;8.50;;;6.28;;
57029;SDS011;42920;45.306;20.448;2023-06-26T08:06:14;9.40;;;5.93;;
57029;SDS011;42920;45.306;20.448;2023-06-26T08:08:40;7.70;;;6.18;;
57029;SDS011;42920;45.306;20.448;2023-06-26T08:11:05;9.00;;;6.07;;
57029;SDS011;42920;45.306;20.448;2023-06-26T08:13:31;11.70;;;6.40;;
57029;SDS011;42920;45.306;20.448;2023-06-26T08:15:57;13.65;;;6.95;;
57029;SDS011;42920;45.306;20.448;2023-06-26T08:18:22;11.10;;;6.97;;
57029;SDS011;42920;45.306;20.448;2023-06-26T08:20:48;9.88;;;6.93;;
57029;SDS011;42920;45.306;20.448;2023-06-26T08:23:14;9.18;;;6.20;;
57029;SDS011;42920;45.306;20.448;2023-06-26T08:25:39;11.48;;;6.15;;
57029;SDS011;42920;45.306;20.448;2023-06-26T08:28:05;9.60;;;6.22;;
57029;SDS011;42920;45.306;20.448;2023-06-26T08:30:31;8.43;;;6.25;;
57029;SDS011;42920;45.306;20.448;2023-06-26T08:32:57;8.07;;;5.78;;
57029;SDS011;42920;45.306;20.448;2023-06-26T08:35:23;9.80;;;6.35;;
57029;SDS011;42920;45.306;20.448;2023-06-26T08:37:49;9.90;;;5.63;;
57029;SDS011;42920;45.306;20.448;2023-06-26T08:40:18;8.48;;;6.18;;
57029;SDS011;42920;45.306;20.448;2023-06-26T08:42:45;9.35;;;5.47;;
57029;SDS011;42920;45.306;20.448;2023-06-26T08:45:10;10.80;;;6.50;;
57029;SDS011;42920;45.306;20.448;2023-06-26T08:47:37;7.80;;;5.95;;
57029;SDS011;42920;45.306;20.448;2023-06-26T08:50:07;8.35;;;6.18;;
57029;SDS011;42920;45.306;20.448;2023-06-26T08:52:36;11.35;;;5.95;;
57029;SDS011;42920;45.306;20.448;2023-06-26T08:55:06;7.72;;;5.80;;
57029;SDS011;42920;45.306;20.448;2023-06-26T08:57:35;8.88;;;6.28;;
57029;SDS011;42920;45.306;20.448;2023-06-26T09:00:02;7.88;;;6.55;;
57029;SDS011;42920;45.306;20.448;2023-06-26T09:02:29;11.93;;;6.68;;
57029;SDS011;42920;45.306;20.448;2023-06-26T09:04:55;15.23;;;6.40;;
57029;SDS011;42920;45.306;20.448;2023-06-26T09:07:21;9.77;;;5.88;;
57029;SDS011;42920;45.306;20.448;2023-06-26T09:09:46;10.48;;;5.82;;
57029;SDS011;42920;45.306;20.448;2023-06-26T09:12:12;10.43;;;6.05;;
57029;SDS011;42920;45.306;20.448;2023-06-26T09:14:38;8.00;;;5.63;;
57029;SDS011;42920;45.306;20.448;2023-06-26T09:17:04;10.63;;;5.32;;
57029;SDS011;42920;45.306;20.448;2023-06-26T09:19:30;8.07;;;5.15;;
57029;SDS011;42920;45.306;20.448;2023-06-26T09:21:56;8.02;;;5.72;;
57029;SDS011;42920;45.306;20.448;2023-06-26T09:24:22;12.23;;;6.63;;
57029;SDS011;42920;45.306;20.448;2023-06-26T09:26:48;8.90;;;6.28;;
57029;SDS011;42920;45.306;20.448;2023-06-26T09:29:15;10.40;;;7.68;;
57029;SDS011;42920;45.306;20.448;2023-06-26T09:31:42;7.22;;;5.55;;
57029;SDS011;42920;45.306;20.448;2023-06-26T09:34:09;7.70;;;5.95;;
57029;SDS011;42920;45.306;20.448;2023-06-26T09:36:35;11.73;;;7.07;;
57029;SDS011;42920;45.306;20.448;2023-06-26T09:39:05;11.23;;;6.13;;
57029;SDS011;42920;45.306;20.448;2023-06-26T09:41:35;7.53;;;5.95;;
57029;SDS011;42920;45.306;20.448;2023-06-26T09:44:03;8.60;;;5.25;;
57029;SDS011;42920;45.306;20.448;2023-06-26T09:46:30;7.35;;;5.38;;
57029;SDS011;42920;45.306;20.448;2023-06-26T09:51:30;7.43;;;5.30;;
57029;SDS011;42920;45.306;20.448;2023-06-26T09:53:57;8.57;;;5.55;;
57029;SDS011;42920;45.306;20.448;2023-06-26T09:56:23;10.73;;;6.13;;
57029;SDS011;42920;45.306;20.448;2023-06-26T09:58:49;7.60;;;5.72;;
57029;SDS011;42920;45.306;20.448;2023-06-26T10:01:15;8.05;;;5.57;;
57029;SDS011;42920;45.306;20.448;2023-06-26T10:03:42;8.57;;;5.55;;
57029;SDS011;42920;45.306;20.448;2023-06-26T10:06:09;7.20;;;5.30;;
57029;SDS011;42920;45.306;20.448;2023-06-26T10:08:36;8.30;;;5.85;;
57029;SDS011;42920;45.306;20.448;2023-06-26T10:11:04;8.57;;;5.45;;
57029;SDS011;42920;45.306;20.448;2023-06-26T10:13:33;7.03;;;5.13;;
57029;SDS011;42920;45.306;20.448;2023-06-26T10:16:03;8.07;;;5.63;;
57029;SDS011;42920;45.306;20.448;2023-06-26T10:18:30;9.38;;;5.53;;
57029;SDS011;42920;45.306;20.448;2023-06-26T10:20:59;7.85;;;5.25;;
57029;SDS011;42920;45.306;20.448;2023-06-26T10:23:28;7.43;;;5.40;;
57029;SDS011;42920;45.306;20.448;2023-06-26T10:25:55;6.95;;;4.82;;
57029;SDS011;42920;45.306;20.448;2023-06-26T10:28:23;10.20;;;5.20;;
57029;SDS011;42920;45.306;20.448;2023-06-26T10:30:51;7.60;;;5.20;;
57029;SDS011;42920;45.306;20.448;2023-06-26T10:33:18;8.35;;;5.10;;
57029;SDS011;42920;45.306;20.448;2023-06-26T10:35:45;6.38;;;4.72;;
57029;SDS011;42920;45.306;20.448;2023-06-26T10:38:11;9.32;;;5.40;;
57029;SDS011;42920;45.306;20.448;2023-06-26T10:40:55;5.65;;;4.45;;
57029;SDS011;42920;45.306;20.448;2023-06-26T10:43:21;7.28;;;4.78;;
57029;SDS011;42920;45.306;20.448;2023-06-26T10:45:55;6.95;;;5.10;;
57029;SDS011;42920;45.306;20.448;2023-06-26T10:48:20;6.25;;;4.70;;
57029;SDS011;42920;45.306;20.448;2023-06-26T10:50:47;8.35;;;5.50;;
57029;SDS011;42920;45.306;20.448;2023-06-26T11:03:45;9.20;;;5.28;;
57029;SDS011;42920;45.306;20.448;2023-06-26T11:06:27;6.78;;;4.82;;
57029;SDS011;42920;45.306;20.448;2023-06-26T11:08:53;7.00;;;5.18;;
57029;SDS011;42920;45.306;20.448;2023-06-26T11:14:15;7.30;;;5.15;;
57029;SDS011;42920;45.306;20.448;2023-06-26T11:16:42;7.32;;;5.25;;
57029;SDS011;42920;45.306;20.448;2023-06-26T11:19:08;7.63;;;4.70;;
57029;SDS011;42920;45.306;20.448;2023-06-26T11:21:35;7.60;;;5.60;;
57029;SDS011;42920;45.306;20.448;2023-06-26T11:24:08;6.03;;;4.60;;
57029;SDS011;42920;45.306;20.448;2023-06-26T11:26:38;8.70;;;5.10;;
57029;SDS011;42920;45.306;20.448;2023-06-26T11:29:04;6.13;;;4.38;;
57029;SDS011;42920;45.306;20.448;2023-06-26T11:31:31;6.68;;;4.25;;
57029;SDS011;42920;45.306;20.448;2023-06-26T11:34:03;7.20;;;4.38;;
57029;SDS011;42920;45.306;20.448;2023-06-26T11:36:30;8.07;;;4.75;;
57029;SDS011;42920;45.306;20.448;2023-06-26T11:39:01;8.25;;;4.28;;
57029;SDS011;42920;45.306;20.448;2023-06-26T11:41:34;7.05;;;4.88;;
57029;SDS011;42920;45.306;20.448;2023-06-26T11:44:04;7.80;;;5.03;;
57029;SDS011;42920;45.306;20.448;2023-06-26T11:46:35;7.60;;;4.70;;
57029;SDS011;42920;45.306;20.448;2023-06-26T11:49:07;7.72;;;5.13;;
57029;SDS011;42920;45.306;20.448;2023-06-26T11:51:33;8.07;;;4.75;;
57029;SDS011;42920;45.306;20.448;2023-06-26T11:54:01;8.05;;;5.03;;
57029;SDS011;42920;45.306;20.448;2023-06-26T11:56:30;7.68;;;5.38;;
57029;SDS011;42920;45.306;20.448;2023-06-26T11:59:06;7.43;;;4.72;;
57029;SDS011;42920;45.306;20.448;2023-06-26T12:01:38;7.78;;;5.13;;
57029;SDS011;42920;45.306;20.448;2023-06-26T12:04:06;8.52;;;5.30;;
57029;SDS011;42920;45.306;20.448;2023-06-26T12:06:40;9.75;;;4.97;;
57029;SDS011;42920;45.306;20.448;2023-06-26T12:09:08;7.97;;;5.03;;
57029;SDS011;42920;45.306;20.448;2023-06-26T12:11:40;7.28;;;5.65;;
57029;SDS011;42920;45.306;20.448;2023-06-26T12:14:07;9.20;;;4.97;;
57029;SDS011;42920;45.306;20.448;2023-06-26T12:16:34;8.38;;;4.97;;
57029;SDS011;42920;45.306;20.448;2023-06-26T12:19:01;8.35;;;5.22;;
57029;SDS011;42920;45.306;20.448;2023-06-26T12:24:02;7.93;;;5.25;;
57029;SDS011;42920;45.306;20.448;2023-06-26T12:26:28;8.27;;;5.25;;
57029;SDS011;42920;45.306;20.448;2023-06-26T12:29:04;7.20;;;5.00;;
57029;SDS011;42920;45.306;20.448;2023-06-26T12:31:33;8.13;;;5.55;;
57029;SDS011;42920;45.306;20.448;2023-06-26T12:33:59;9.32;;;5.40;;
57029;SDS011;42920;45.306;20.448;2023-06-26T12:36:26;7.25;;;5.03;;
57029;SDS011;42920;45.306;20.448;2023-06-26T12:38:55;8.30;;;5.07;;
57029;SDS011;42920;45.306;20.448;2023-06-26T12:41:23;6.53;;;4.32;;
57029;SDS011;42920;45.306;20.448;2023-06-26T12:43:49;8.65;;;5.30;;
57029;SDS011;42920;45.306;20.448;2023-06-26T12:46:20;8.70;;;5.15;;
57029;SDS011;42920;45.306;20.448;2023-06-26T12:48:57;7.90;;;5.10;;
57029;SDS011;42920;45.306;20.448;2023-06-26T12:51:23;7.15;;;4.78;;
57029;SDS011;42920;45.306;20.448;2023-06-26T12:53:51;7.13;;;4.85;;
57029;SDS011;42920;45.306;20.448;2023-06-26T12:56:17;7.55;;;4.82;;
57029;SDS011;42920;45.306;20.448;2023-06-26T12:58:43;6.82;;;4.82;;
57029;SDS011;42920;45.306;20.448;2023-06-26T13:01:09;8.05;;;4.93;;
57029;SDS011;42920;45.306;20.448;2023-06-26T13:03:39;8.38;;;5.63;;
57029;SDS011;42920;45.306;20.448;2023-06-26T13:06:05;7.20;;;4.97;;
57029;SDS011;42920;45.306;20.448;2023-06-26T13:08:32;12.25;;;5.75;;
57029;SDS011;42920;45.306;20.448;2023-06-26T13:10:59;10.45;;;5.32;;
57029;SDS011;42920;45.306;20.448;2023-06-26T13:13:25;8.32;;;5.82;;
57029;SDS011;42920;45.306;20.448;2023-06-26T13:15:51;8.52;;;4.95;;
57029;SDS011;42920;45.306;20.448;2023-06-26T13:18:16;5.70;;;4.20;;
57029;SDS011;42920;45.306;20.448;2023-06-26T13:20:42;9.63;;;5.50;;
57029;SDS011;42920;45.306;20.448;2023-06-26T13:23:08;7.55;;;5.10;;
57029;SDS011;42920;45.306;20.448;2023-06-26T13:25:33;10.65;;;4.90;;
57029;SDS011;42920;45.306;20.448;2023-06-26T13:27:59;9.95;;;5.20;;
57029;SDS011;42920;45.306;20.448;2023-06-26T13:30:25;8.43;;;4.85;;
57029;SDS011;42920;45.306;20.448;2023-06-26T13:32:51;7.57;;;5.88;;
57029;SDS011;42920;45.306;20.448;2023-06-26T13:35:16;8.57;;;5.25;;
57029;SDS011;42920;45.306;20.448;2023-06-26T13:37:43;7.07;;;4.75;;
57029;SDS011;42920;45.306;20.448;2023-06-26T13:40:08;8.60;;;5.47;;
57029;SDS011;42920;45.306;20.448;2023-06-26T13:42:35;8.00;;;4.95;;
57029;SDS011;42920;45.306;20.448;2023-06-26T13:45:05;7.38;;;4.80;;
57029;SDS011;42920;45.306;20.448;2023-06-26T13:47:31;10.18;;;5.55;;
57029;SDS011;42920;45.306;20.448;2023-06-26T13:49:59;7.97;;;5.20;;
57029;SDS011;42920;45.306;20.448;2023-06-26T13:52:25;10.10;;;6.18;;
57029;SDS011;42920;45.306;20.448;2023-06-26T13:54:51;9.60;;;5.82;;
57029;SDS011;42920;45.306;20.448;2023-06-26T13:57:17;10.38;;;5.68;;
57029;SDS011;42920;45.306;20.448;2023-06-26T13:59:44;8.52;;;5.68;;
57029;SDS011;42920;45.306;20.448;2023-06-26T14:02:10;8.63;;;5.70;;
57029;SDS011;42920;45.306;20.448;2023-06-26T14:04:35;9.32;;;5.43;;
57029;SDS011;42920;45.306;20.448;2023-06-26T14:07:02;8.77;;;6.00;;
57029;SDS011;42920;45.306;20.448;2023-06-26T14:09:28;7.93;;;5.88;;
57029;SDS011;42920;45.306;20.448;2023-06-26T14:11:54;10.82;;;6.03;;
57029;SDS011;42920;45.306;20.448;2023-06-26T14:14:19;7.55;;;5.80;;
57029;SDS011;42920;45.306;20.448;2023-06-26T14:16:45;8.95;;;6.53;;
57029;SDS011;42920;45.306;20.448;2023-06-26T14:19:11;11.18;;;6.40;;
57029;SDS011;42920;45.306;20.448;2023-06-26T14:21:39;7.70;;;5.68;;
57029;SDS011;42920;45.306;20.448;2023-06-26T14:24:05;7.18;;;5.68;;
57029;SDS011;42920;45.306;20.448;2023-06-26T14:26:31;8.70;;;5.85;;
57029;SDS011;42920;45.306;20.448;2023-06-26T14:28:58;7.03;;;5.78;;
57029;SDS011;42920;45.306;20.448;2023-06-26T14:31:25;11.00;;;5.68;;
57029;SDS011;42920;45.306;20.448;2023-06-26T14:33:51;8.68;;;5.72;;
57029;SDS011;42920;45.306;20.448;2023-06-26T14:36:16;7.82;;;5.55;;
57029;SDS011;42920;45.306;20.448;2023-06-26T14:38:42;8.75;;;5.47;;
57029;SDS011;42920;45.306;20.448;2023-06-26T14:41:08;9.70;;;6.53;;
57029;SDS011;42920;45.306;20.448;2023-06-26T14:43:34;6.78;;;5.32;;
57029;SDS011;42920;45.306;20.448;2023-06-26T14:45:59;7.70;;;5.45;;
57029;SDS011;42920;45.306;20.448;2023-06-26T14:48:25;7.38;;;5.78;;